Time;durP1;ratioP1;P1;durP2;ratioP2;P2;SDS_P1;SDS_P2;PMS_P1;PMS_P2;Temp;Humidity;BMP_temperature;BMP_pressure;BME280_temperature;BME280_humidity;BME280_pressure;Samples;Min_cycle;Max_cycle;Signal;HPM_P1;HPM_P2
2022/01/30 00:00:32;;;;;;;;;;;8.20;99.90;;;;;;4979746;28;19902;-86
2022/01/30 00:02:58;;;;;;;;;;;8.20;99.90;;;;;;4978055;28;20214;-86
2022/01/30 00:05:23;;;;;;;;;;;8.20;99.90;;;;;;4974231;28;19910;-86
2022/01/30 00:07:49;;;;;;;;;;;8.30;99.90;;;;;;4964326;28;19911;-88
2022/01/30 00:10:15;;;;;;;;;;;8.30;99.90;;;;;;4979489;28;19906;-88
2022/01/30 00:12:49;;;;;;;;;;;8.40;99.90;;;;;;4979084;28;19902;-88
2022/01/30 00:15:16;;;;;;;;;;;8.30;99.90;;;;;;4979704;28;19910;-88
2022/01/30 00:17:49;;;;;;;;;;;8.30;99.90;;;;;;4963916;28;19937;-88
2022/01/30 00:20:24;;;;;;;;;;;8.20;99.90;;;;;;4962641;29;19993;-87
2022/01/30 00:23:09;;;;;;;;;;;8.20;99.90;;;;;;4979771;28;19903;-88
2022/01/30 00:25:46;;;;;;;;;;;8.30;99.90;;;;;;4964489;28;19918;-88
2022/01/30 00:28:14;;;;;;;;;;;8.40;99.90;;;;;;4962519;29;19911;-88
2022/01/30 00:30:39;;;;;;;;;;;8.40;99.90;;;;;;4979432;28;19949;-88
2022/01/30 00:33:05;;;;;;;;;;;8.40;99.90;;;;;;4977213;28;19906;-87
2022/01/30 00:35:33;;;;;;;;;;;8.40;99.90;;;;;;4961223;28;20193;-88
2022/01/30 00:37:59;;;;;;;;;;;8.50;99.90;;;;;;4962578;28;20190;-88
2022/01/30 00:40:25;;;;;;;;;;;8.50;99.90;;;;;;4979212;28;19903;-88
2022/01/30 00:42:50;;;;;;;;;;;8.50;99.90;;;;;;4961738;28;19977;-88
2022/01/30 00:45:16;;;;;;;;;;;8.50;99.90;;;;;;4982095;28;20203;-88
2022/01/30 00:47:41;;;;;;;;;;;8.50;99.90;;;;;;4977534;28;20422;-88
2022/01/30 00:50:07;;;;;;;;;;;8.50;99.90;;;;;;4976205;28;20110;-87
2022/01/30 00:52:33;;;;;;;;;;;8.50;99.90;;;;;;4960501;28;20319;-88
2022/01/30 00:54:58;;;;;;;;;;;8.50;99.90;;;;;;4963667;28;19918;-88
2022/01/30 00:57:24;;;;;;;;;;;8.50;99.90;;;;;;4963438;29;19902;-87
2022/01/30 00:59:49;;;;;;;;;;;8.40;99.90;;;;;;4963278;29;19902;-87
2022/01/30 01:02:16;;;;;;;;;;;8.50;99.90;;;;;;4963203;29;20207;-88
2022/01/30 01:04:41;;;;;;;;;;;8.60;99.90;;;;;;4963224;29;20139;-87
2022/01/30 01:07:12;;;;;;;;;;;8.30;99.90;;;;;;4961345;28;19950;-87
2022/01/30 01:09:40;;;;;;;;;;;8.30;99.90;;;;;;4958231;29;19906;-87
2022/01/30 01:21:00;;;;;;;;;;;8.20;99.90;;;;;;5017135;28;19944;-88
2022/01/30 01:25:55;;;;;;;;;;;8.30;99.90;;;;;;4967026;28;19902;-88
2022/01/30 01:28:21;;;;;;;;;;;8.20;99.90;;;;;;4965496;29;20255;-88
2022/01/30 01:30:46;;;;;;;;;;;8.30;99.90;;;;;;4965153;28;19902;-88
2022/01/30 01:33:14;;;;;;;;;;;8.30;99.90;;;;;;4964924;28;19902;-87
2022/01/30 01:35:39;;;;;;;;;;;8.20;99.90;;;;;;4981515;28;19918;-87
2022/01/30 01:38:10;;;;;;;;;;;8.30;99.90;;;;;;4980504;28;19910;-87
2022/01/30 01:40:36;;;;;;;;;;;8.40;99.90;;;;;;4978494;28;19902;-86
2022/01/30 01:43:02;;;;;;;;;;;8.40;99.90;;;;;;4961012;28;19969;-87
2022/01/30 01:45:33;;;;;;;;;;;8.40;99.90;;;;;;4964314;28;19910;-86
2022/01/30 01:48:02;;;;;;;;;;;8.40;99.90;;;;;;4980827;28;19921;-86
2022/01/30 01:50:40;;;;;;;;;;;8.40;99.90;;;;;;4965692;28;19911;-87
2022/01/30 01:53:07;;;;;;;;;;;8.30;99.90;;;;;;4965788;28;19917;-86
2022/01/30 01:55:34;;;;;;;;;;;8.40;99.90;;;;;;4964601;29;19903;-86
2022/01/30 01:57:59;;;;;;;;;;;8.40;99.90;;;;;;4963532;29;20268;-86
2022/01/30 02:00:25;;;;;;;;;;;8.30;99.90;;;;;;4964527;29;19908;-86
2022/01/30 02:02:50;;;;;;;;;;;8.40;99.90;;;;;;4966624;29;19909;-86
2022/01/30 02:05:16;;;;;;;;;;;8.40;99.90;;;;;;4959678;29;19907;-86
2022/01/30 02:10:34;;;;;;;;;;;8.40;99.90;;;;;;4963709;29;19930;-86
2022/01/30 02:13:17;;;;;;;;;;;8.40;99.90;;;;;;4963559;29;20279;-86
2022/01/30 02:23:56;;;;;;;;;;;8.40;99.90;;;;;;4979348;28;19977;-86
2022/01/30 02:24:06;;;;;;;;;;;8.30;99.90;;;;;;4964300;29;19962;-86
2022/01/30 02:26:35;;;;;;;;;;;8.40;99.90;;;;;;4964219;28;19913;-87
2022/01/30 02:29:01;;;;;;;;;;;8.40;99.90;;;;;;4963794;28;19914;-86
2022/01/30 02:31:26;;;;;;;;;;;8.30;99.90;;;;;;4979540;28;19903;-86
2022/01/30 02:33:52;;;;;;;;;;;8.30;99.90;;;;;;4965566;28;19902;-86
2022/01/30 02:36:17;;;;;;;;;;;8.30;99.90;;;;;;4964291;29;19937;-86
2022/01/30 02:38:43;;;;;;;;;;;8.20;99.90;;;;;;4965792;29;19950;-86
2022/01/30 02:41:08;;;;;;;;;;;8.20;99.90;;;;;;4965077;28;19951;-87
2022/01/30 02:43:40;;;;;;;;;;;8.20;99.90;;;;;;4965132;29;19914;-86
2022/01/30 02:46:22;;;;;;;;;;;8.20;99.90;;;;;;4965903;29;19906;-86
2022/01/30 02:48:52;;;;;;;;;;;8.10;99.90;;;;;;4965698;29;19910;-87
2022/01/30 02:51:21;;;;;;;;;;;8.20;99.90;;;;;;4976281;28;19911;-86
2022/01/30 02:53:55;;;;;;;;;;;8.20;99.90;;;;;;4962509;28;19902;-87
2022/01/30 02:56:21;;;;;;;;;;;8.20;99.90;;;;;;4978286;28;19910;-86
2022/01/30 02:58:46;;;;;;;;;;;8.20;99.90;;;;;;4980432;28;19902;-86
2022/01/30 03:01:12;;;;;;;;;;;8.20;99.90;;;;;;4963982;28;19902;-86
2022/01/30 03:03:37;;;;;;;;;;;8.20;99.90;;;;;;4962557;28;19906;-86
2022/01/30 03:06:03;;;;;;;;;;;8.20;99.90;;;;;;4959885;28;19907;-86
2022/01/30 03:08:29;;;;;;;;;;;8.20;99.90;;;;;;4963200;28;19949;-86
2022/01/30 03:10:54;;;;;;;;;;;8.10;99.90;;;;;;4964350;29;19902;-86
2022/01/30 03:13:20;;;;;;;;;;;8.10;99.90;;;;;;4965017;29;20219;-87
2022/01/30 03:15:45;;;;;;;;;;;8.20;99.90;;;;;;4961770;28;20191;-87
2022/01/30 03:18:11;;;;;;;;;;;8.20;99.90;;;;;;4965156;29;19991;-86
2022/01/30 03:20:36;;;;;;;;;;;8.30;99.90;;;;;;4980212;28;20046;-86
2022/01/30 03:23:02;;;;;;;;;;;8.30;99.90;;;;;;4976374;28;20513;-86
2022/01/30 03:25:30;;;;;;;;;;;8.30;99.90;;;;;;4964320;28;19909;-87
2022/01/30 03:27:56;;;;;;;;;;;8.30;99.90;;;;;;4979762;28;19953;-86
2022/01/30 03:30:28;;;;;;;;;;;8.20;99.90;;;;;;4971276;28;19902;-86
2022/01/30 03:32:53;;;;;;;;;;;8.20;99.90;;;;;;4963243;28;20042;-87
2022/01/30 03:35:19;;;;;;;;;;;8.20;99.90;;;;;;4964921;28;19914;-86
2022/01/30 03:37:44;;;;;;;;;;;8.30;99.90;;;;;;4977705;28;19984;-86
2022/01/30 03:40:11;;;;;;;;;;;8.30;99.90;;;;;;4976463;28;20095;-87
2022/01/30 03:42:36;;;;;;;;;;;8.30;99.90;;;;;;4962486;28;19942;-87
2022/01/30 03:45:02;;;;;;;;;;;8.30;99.90;;;;;;4971607;28;19907;-87
2022/01/30 03:47:28;;;;;;;;;;;8.10;99.90;;;;;;4964475;28;19907;-87
2022/01/30 03:49:53;;;;;;;;;;;8.10;99.90;;;;;;4978059;28;20135;-87
2022/01/30 03:52:19;;;;;;;;;;;8.10;99.90;;;;;;4979216;28;19903;-86
2022/01/30 03:54:45;;;;;;;;;;;8.20;99.90;;;;;;4963260;28;20186;-86
2022/01/30 03:57:11;;;;;;;;;;;8.20;99.90;;;;;;4979514;28;19903;-87
2022/01/30 03:59:37;;;;;;;;;;;8.20;99.90;;;;;;4962956;28;19906;-87
2022/01/30 04:02:03;;;;;;;;;;;8.10;99.90;;;;;;4979400;28;19966;-86
2022/01/30 04:04:29;;;;;;;;;;;8.10;99.90;;;;;;4977576;28;19907;-86
2022/01/30 04:06:58;;;;;;;;;;;8.00;99.90;;;;;;4963601;28;19903;-87
2022/01/30 04:09:24;;;;;;;;;;;8.10;99.90;;;;;;4975024;28;19910;-86
2022/01/30 04:11:50;;;;;;;;;;;8.20;99.90;;;;;;4962933;28;19949;-87
2022/01/30 04:14:16;;;;;;;;;;;8.10;99.90;;;;;;4963946;28;19902;-87
2022/01/30 04:16:42;;;;;;;;;;;8.20;99.90;;;;;;4959331;28;19964;-87
2022/01/30 04:19:08;;;;;;;;;;;8.30;99.90;;;;;;4960248;28;19969;-86
2022/01/30 04:21:33;;;;;;;;;;;8.30;99.90;;;;;;4975658;28;19913;-87
2022/01/30 04:23:59;;;;;;;;;;;8.20;99.90;;;;;;4964008;28;19902;-86
2022/01/30 04:26:24;;;;;;;;;;;8.20;99.90;;;;;;4963771;28;19902;-87
2022/01/30 04:28:50;;;;;;;;;;;8.20;99.90;;;;;;4976700;28;19979;-86
2022/01/30 04:31:16;;;;;;;;;;;8.30;99.90;;;;;;4961571;28;19903;-87
2022/01/30 04:33:42;;;;;;;;;;;8.40;99.90;;;;;;4978785;28;20238;-86
2022/01/30 04:36:11;;;;;;;;;;;8.30;99.90;;;;;;4963646;28;19902;-87
2022/01/30 04:38:54;;;;;;;;;;;8.20;99.90;;;;;;4976481;28;20139;-86
2022/01/30 04:57:42;;;;;;;;;;;8.30;99.90;;;;;;4963166;29;19902;-86
2022/01/30 05:00:06;;;;;;;;;;;8.40;99.90;;;;;;4963443;28;19910;-87
2022/01/30 05:05:36;;;;;;;;;;;8.50;99.90;;;;;;4959080;28;19910;-87
2022/01/30 05:07:56;;;;;;;;;;;8.60;99.90;;;;;;4962604;28;19978;-87
2022/01/30 05:10:22;;;;;;;;;;;8.50;99.90;;;;;;4960626;28;20183;-87
2022/01/30 05:12:51;;;;;;;;;;;8.40;99.90;;;;;;4962650;28;19909;-87
2022/01/30 05:15:21;;;;;;;;;;;8.40;99.90;;;;;;4961924;29;19902;-86
2022/01/30 05:17:47;;;;;;;;;;;8.50;99.90;;;;;;4976438;28;20194;-87
2022/01/30 05:20:13;;;;;;;;;;;8.50;99.90;;;;;;4977722;28;19910;-87
2022/01/30 05:22:39;;;;;;;;;;;8.50;99.90;;;;;;4961098;28;19967;-87
2022/01/30 05:25:04;;;;;;;;;;;8.50;99.90;;;;;;4974288;28;20098;-87
2022/01/30 05:27:30;;;;;;;;;;;8.50;99.90;;;;;;4978291;28;20259;-86
2022/01/30 05:29:56;;;;;;;;;;;8.50;99.90;;;;;;4978101;28;19930;-87
2022/01/30 05:32:21;;;;;;;;;;;8.50;99.90;;;;;;4978263;28;19902;-88
2022/01/30 05:34:47;;;;;;;;;;;8.60;99.90;;;;;;4975633;28;19903;-86
2022/01/30 05:37:15;;;;;;;;;;;8.60;99.90;;;;;;4977395;28;20242;-87
2022/01/30 05:39:41;;;;;;;;;;;8.60;99.90;;;;;;4973507;28;19961;-86
2022/01/30 05:42:06;;;;;;;;;;;8.60;99.90;;;;;;4960991;28;19957;-86
2022/01/30 05:44:45;;;;;;;;;;;8.60;99.90;;;;;;4962737;29;19915;-86
2022/01/30 05:47:14;;;;;;;;;;;8.60;99.90;;;;;;4977825;28;20191;-87
2022/01/30 05:49:39;;;;;;;;;;;8.70;99.90;;;;;;4962233;28;19915;-87
2022/01/30 05:52:05;;;;;;;;;;;8.70;99.90;;;;;;4960820;29;19909;-86
2022/01/30 05:54:31;;;;;;;;;;;8.70;99.90;;;;;;4978267;28;20107;-86
2022/01/30 05:56:56;;;;;;;;;;;8.60;99.90;;;;;;4976516;28;19902;-87
2022/01/30 05:59:22;;;;;;;;;;;8.60;99.90;;;;;;4961980;28;19910;-87
2022/01/30 06:01:47;;;;;;;;;;;8.60;99.90;;;;;;4963321;28;19909;-87
2022/01/30 06:04:13;;;;;;;;;;;8.50;99.90;;;;;;4964457;29;20262;-87
2022/01/30 06:06:47;;;;;;;;;;;8.40;99.90;;;;;;4980840;28;19903;-87
2022/01/30 06:11:41;;;;;;;;;;;8.40;99.90;;;;;;4964770;28;19902;-87
2022/01/30 06:14:07;;;;;;;;;;;8.50;99.90;;;;;;4980873;28;19910;-87
2022/01/30 06:16:32;;;;;;;;;;;8.40;99.90;;;;;;4977180;28;19969;-87
2022/01/30 06:18:58;;;;;;;;;;;8.50;99.90;;;;;;4978078;28;19903;-87
2022/01/30 06:21:24;;;;;;;;;;;8.50;99.90;;;;;;4965378;28;20235;-86
2022/01/30 06:23:49;;;;;;;;;;;8.50;99.90;;;;;;4965954;29;19910;-87
2022/01/30 06:26:15;;;;;;;;;;;8.50;99.90;;;;;;4962714;29;19902;-87
2022/01/30 06:28:40;;;;;;;;;;;8.50;99.90;;;;;;4966290;29;20322;-86
2022/01/30 06:31:06;;;;;;;;;;;8.50;99.90;;;;;;4965993;29;19973;-85
2022/01/30 06:33:32;;;;;;;;;;;8.40;99.90;;;;;;4966158;29;19902;-87
2022/01/30 06:35:57;;;;;;;;;;;8.50;99.90;;;;;;4963751;28;19909;-86
2022/01/30 06:38:23;;;;;;;;;;;8.40;99.90;;;;;;4962486;28;19902;-87
2022/01/30 06:40:48;;;;;;;;;;;8.50;99.90;;;;;;4963033;28;19907;-86
2022/01/30 06:43:14;;;;;;;;;;;8.50;99.90;;;;;;4978437;28;19937;-87
2022/01/30 06:45:42;;;;;;;;;;;8.50;99.90;;;;;;4966064;28;19902;-87
2022/01/30 06:48:08;;;;;;;;;;;8.50;99.90;;;;;;4965659;28;19911;-87
2022/01/30 06:50:33;;;;;;;;;;;8.60;99.90;;;;;;4964987;29;19903;-87
2022/01/30 06:52:59;;;;;;;;;;;8.60;99.90;;;;;;4965781;29;20205;-87
2022/01/30 06:55:24;;;;;;;;;;;8.60;99.90;;;;;;4980837;28;19902;-87
2022/01/30 06:57:50;;;;;;;;;;;8.60;99.90;;;;;;4980594;28;19938;-86
2022/01/30 07:00:15;;;;;;;;;;;8.70;99.90;;;;;;4980535;28;19902;-86
2022/01/30 07:02:41;;;;;;;;;;;8.70;99.90;;;;;;4980548;28;19902;-87
2022/01/30 07:05:07;;;;;;;;;;;8.60;99.90;;;;;;4976542;28;19910;-87
2022/01/30 07:07:32;;;;;;;;;;;8.50;99.90;;;;;;4980454;28;19903;-87
2022/01/30 07:09:58;;;;;;;;;;;8.50;99.90;;;;;;4964944;28;20080;-87
2022/01/30 07:12:23;;;;;;;;;;;8.50;99.90;;;;;;4979965;28;20091;-87
2022/01/30 07:14:49;;;;;;;;;;;8.60;99.90;;;;;;4964960;28;19902;-87
2022/01/30 07:17:14;;;;;;;;;;;8.60;99.90;;;;;;4980034;28;19902;-87
2022/01/30 07:19:43;;;;;;;;;;;8.50;99.90;;;;;;4963538;28;19957;-94
2022/01/30 07:22:09;;;;;;;;;;;8.40;99.90;;;;;;4980967;28;20195;-89
2022/01/30 07:24:34;;;;;;;;;;;8.40;99.90;;;;;;4963017;28;19909;-91
2022/01/30 07:27:00;;;;;;;;;;;8.50;99.90;;;;;;4961032;29;19906;-91
2022/01/30 07:29:26;;;;;;;;;;;8.50;99.90;;;;;;4965698;28;19915;-88
2022/01/30 07:31:51;;;;;;;;;;;8.50;99.90;;;;;;4963865;28;19909;-92
2022/01/30 07:34:20;;;;;;;;;;;8.50;99.90;;;;;;4965004;28;19973;-87
2022/01/30 07:36:46;;;;;;;;;;;8.50;99.90;;;;;;4964721;28;19907;-92
2022/01/30 07:39:12;;;;;;;;;;;8.50;99.90;;;;;;4964723;28;20238;-90
2022/01/30 07:41:37;;;;;;;;;;;8.50;99.90;;;;;;4964502;28;19910;-88
2022/01/30 07:44:04;;;;;;;;;;;8.60;99.90;;;;;;4964927;28;19972;-95
2022/01/30 07:46:30;;;;;;;;;;;8.60;99.90;;;;;;4964871;28;19988;-93
2022/01/30 07:48:56;;;;;;;;;;;8.60;99.90;;;;;;4964010;28;19910;-92
2022/01/30 07:51:21;;;;;;;;;;;8.60;99.90;;;;;;4964367;28;19928;-89
2022/01/30 07:53:47;;;;;;;;;;;8.70;99.90;;;;;;4965745;28;20202;-89
2022/01/30 07:56:13;;;;;;;;;;;8.70;99.90;;;;;;4965124;29;19902;-92
2022/01/30 07:58:38;;;;;;;;;;;8.70;99.90;;;;;;4964597;28;19904;-88
2022/01/30 08:01:04;;;;;;;;;;;8.80;99.90;;;;;;4964377;28;20202;-90
2022/01/30 08:03:29;;;;;;;;;;;8.80;99.90;;;;;;4963215;28;19958;-88
2022/01/30 08:05:55;;;;;;;;;;;8.80;99.90;;;;;;4979147;28;20198;-89
2022/01/30 08:08:21;;;;;;;;;;;8.80;99.90;;;;;;4959541;29;20012;-88
2022/01/30 08:10:46;;;;;;;;;;;8.80;99.90;;;;;;4958948;28;19902;-89
2022/01/30 08:13:12;;;;;;;;;;;8.80;99.90;;;;;;4961946;28;19910;-89
2022/01/30 08:15:37;;;;;;;;;;;8.70;99.90;;;;;;4962520;28;20132;-89
2022/01/30 08:18:03;;;;;;;;;;;8.70;99.90;;;;;;4958534;28;19902;-89
2022/01/30 08:20:29;;;;;;;;;;;8.70;99.90;;;;;;4973249;28;19906;-88
2022/01/30 08:22:55;;;;;;;;;;;8.80;99.90;;;;;;4957252;28;20033;-89
2022/01/30 08:25:22;;;;;;;;;;;8.70;99.90;;;;;;4958996;28;19961;-88
2022/01/30 08:27:48;;;;;;;;;;;8.60;99.90;;;;;;4959182;28;20278;-90
2022/01/30 08:30:13;;;;;;;;;;;8.50;99.90;;;;;;4960046;28;19958;-90
2022/01/30 08:32:43;;;;;;;;;;;8.50;99.90;;;;;;4960237;28;19902;-89
2022/01/30 08:35:09;;;;;;;;;;;8.50;99.90;;;;;;4959764;28;19981;-90
2022/01/30 08:37:36;;;;;;;;;;;8.50;99.90;;;;;;4959570;28;19906;-89
2022/01/30 08:40:03;;;;;;;;;;;8.50;99.90;;;;;;4961852;28;19910;-94
2022/01/30 08:42:28;;;;;;;;;;;8.60;99.90;;;;;;4964184;28;19966;-89
2022/01/30 08:44:54;;;;;;;;;;;8.70;99.90;;;;;;4962435;28;19906;-89
2022/01/30 08:47:19;;;;;;;;;;;8.70;99.90;;;;;;4963733;28;19909;-89
2022/01/30 08:49:45;;;;;;;;;;;8.70;99.90;;;;;;4959159;28;19910;-90
2022/01/30 08:52:16;;;;;;;;;;;8.80;99.90;;;;;;4963037;28;19902;-91
2022/01/30 08:54:42;;;;;;;;;;;8.90;99.90;;;;;;4963113;28;19953;-89
2022/01/30 08:57:07;;;;;;;;;;;8.90;99.90;;;;;;4963175;28;19994;-89
2022/01/30 08:59:33;;;;;;;;;;;9.00;99.90;;;;;;4963691;28;19909;-89
2022/01/30 09:01:58;;;;;;;;;;;9.10;99.90;;;;;;4962381;28;19907;-90
2022/01/30 09:04:24;;;;;;;;;;;9.20;99.90;;;;;;4963298;28;19909;-88
2022/01/30 09:06:49;;;;;;;;;;;9.20;99.90;;;;;;4963341;28;19971;-88
2022/01/30 09:09:15;;;;;;;;;;;9.30;99.90;;;;;;4961516;28;19993;-89
2022/01/30 09:11:40;;;;;;;;;;;9.20;99.90;;;;;;4961906;28;19907;-92
2022/01/30 09:14:07;;;;;;;;;;;9.00;99.90;;;;;;4979928;28;19961;-92
2022/01/30 09:16:33;;;;;;;;;;;9.10;99.90;;;;;;4979777;28;19929;-93
2022/01/30 09:18:59;;;;;;;;;;;9.10;99.90;;;;;;4976519;28;20352;-93
2022/01/30 09:21:25;;;;;;;;;;;9.30;99.90;;;;;;4978670;28;19982;-95
2022/01/30 09:23:50;;;;;;;;;;;9.40;99.90;;;;;;4980276;28;19906;-93
2022/01/30 09:26:16;;;;;;;;;;;9.60;99.90;;;;;;4978754;28;19903;-93
2022/01/30 09:28:42;;;;;;;;;;;9.60;99.90;;;;;;4979425;28;19917;-91
2022/01/30 09:31:08;;;;;;;;;;;9.70;99.90;;;;;;4978897;28;19909;-89
2022/01/30 09:33:34;;;;;;;;;;;9.70;99.90;;;;;;4962732;28;19993;-91
2022/01/30 09:35:59;;;;;;;;;;;9.60;99.90;;;;;;4977371;28;20367;-89
2022/01/30 09:38:25;;;;;;;;;;;9.50;99.90;;;;;;4967150;28;19902;-90
2022/01/30 09:40:53;;;;;;;;;;;9.40;99.90;;;;;;4964948;29;19907;-90
2022/01/30 09:43:18;;;;;;;;;;;9.50;99.90;;;;;;4979862;28;19921;-89
2022/01/30 09:45:45;;;;;;;;;;;9.50;99.90;;;;;;4966455;28;19902;-90
2022/01/30 09:48:12;;;;;;;;;;;9.70;99.90;;;;;;4965533;29;20221;-89
2022/01/30 09:50:38;;;;;;;;;;;9.80;99.90;;;;;;4967099;28;20249;-90
2022/01/30 09:53:04;;;;;;;;;;;9.90;99.90;;;;;;4980497;28;20346;-91
2022/01/30 09:55:29;;;;;;;;;;;10.00;99.90;;;;;;4965348;28;19906;-91
2022/01/30 09:57:55;;;;;;;;;;;10.00;99.90;;;;;;4966448;29;19953;-92
2022/01/30 10:00:20;;;;;;;;;;;10.00;99.90;;;;;;4981478;28;19942;-91
2022/01/30 10:02:46;;;;;;;;;;;10.00;99.90;;;;;;4981972;28;20195;-75
2022/01/30 11:53:55;;;;;;;;;;;9.90;99.90;;;;;;5366699;23;19924;-94
2022/01/30 12:11:52;;;;;;;;;;;10.30;99.90;;;;;;5954304;23;19929;-92
2022/01/30 12:14:20;;;;;;;;;;;10.30;99.90;;;;;;4937757;29;19915;-86
2022/01/30 12:16:51;;;;;;;;;;;10.30;99.90;;;;;;4939682;29;19909;-87
2022/01/30 12:19:45;;;;;;;;;;;10.30;99.90;;;;;;4940094;29;19969;-87
2022/01/30 12:22:17;;;;;;;;;;;10.20;99.90;;;;;;4939139;29;19917;-90
2022/01/30 12:24:43;;;;;;;;;;;10.40;99.90;;;;;;4945325;29;19907;-89
2022/01/30 12:27:09;;;;;;;;;;;10.40;99.90;;;;;;4944510;29;19902;-89
2022/01/30 12:29:34;;;;;;;;;;;10.60;99.90;;;;;;4939683;29;20284;-88
2022/01/30 12:32:20;;;;;;;;;;;10.80;99.90;;;;;;4940474;29;19910;-87
2022/01/30 12:34:46;;;;;;;;;;;10.80;99.90;;;;;;4935759;29;19918;-88
2022/01/30 12:37:18;;;;;;;;;;;10.70;99.90;;;;;;4949666;29;19895;-88
2022/01/30 12:39:44;;;;;;;;;;;10.70;99.90;;;;;;4945703;29;19910;-87
2022/01/30 12:42:14;;;;;;;;;;;10.60;99.90;;;;;;4944064;29;20001;-88
2022/01/30 12:44:43;;;;;;;;;;;10.70;99.90;;;;;;4941858;29;19907;-89
2022/01/30 12:47:09;;;;;;;;;;;10.80;99.90;;;;;;4941706;29;19907;-88
2022/01/30 12:49:43;;;;;;;;;;;11.00;99.90;;;;;;4941888;29;19910;-88
2022/01/30 12:52:16;;;;;;;;;;;11.00;99.90;;;;;;4946143;29;19906;-88
2022/01/30 12:54:43;;;;;;;;;;;11.00;99.90;;;;;;4947095;29;20402;-88
2022/01/30 12:57:09;;;;;;;;;;;11.00;99.90;;;;;;4945899;29;20300;-88
2022/01/30 12:59:35;;;;;;;;;;;11.10;99.90;;;;;;4951835;29;19911;-88
2022/01/30 13:02:05;;;;;;;;;;;11.10;99.90;;;;;;4933964;29;19906;-88
2022/01/30 13:04:31;;;;;;;;;;;11.10;99.90;;;;;;4951606;29;19997;-89
2022/01/30 13:06:56;;;;;;;;;;;11.10;99.90;;;;;;4951767;29;19906;-88
2022/01/30 13:09:27;;;;;;;;;;;10.90;99.90;;;;;;4935558;29;20299;-88
2022/01/30 13:11:56;;;;;;;;;;;10.80;99.90;;;;;;4937333;29;19906;-88
2022/01/30 13:14:30;;;;;;;;;;;10.60;99.90;;;;;;4938110;29;19907;-88
2022/01/30 13:16:56;;;;;;;;;;;10.40;99.90;;;;;;4938103;29;19907;-89
2022/01/30 13:19:34;;;;;;;;;;;10.20;99.90;;;;;;4937880;29;20484;-88
2022/01/30 13:22:01;;;;;;;;;;;10.20;99.90;;;;;;4938278;29;19907;-88
2022/01/30 13:24:26;;;;;;;;;;;10.20;99.90;;;;;;4920284;29;20292;-89
2022/01/30 13:26:56;;;;;;;;;;;10.00;99.90;;;;;;4937425;29;19913;-88
2022/01/30 13:29:22;;;;;;;;;;;9.90;99.90;;;;;;4937516;29;19914;-88
2022/01/30 13:31:49;;;;;;;;;;;9.90;99.90;;;;;;4937314;29;20328;-88
2022/01/30 13:34:16;;;;;;;;;;;9.80;99.90;;;;;;4920182;29;19914;-88
2022/01/30 13:36:43;;;;;;;;;;;9.70;99.90;;;;;;4937425;29;19907;-88
2022/01/30 13:39:09;;;;;;;;;;;9.70;99.90;;;;;;4920414;29;20307;-87
2022/01/30 13:41:44;;;;;;;;;;;9.80;99.90;;;;;;4937180;29;19910;-88
2022/01/30 13:44:23;;;;;;;;;;;9.90;99.90;;;;;;4919733;29;20332;-88
2022/01/30 13:47:02;;;;;;;;;;;9.90;99.90;;;;;;4937181;29;19907;-89
2022/01/30 13:49:28;;;;;;;;;;;9.90;99.90;;;;;;4937336;29;19914;-88
2022/01/30 13:52:07;;;;;;;;;;;9.80;99.90;;;;;;4937273;29;20283;-89
2022/01/30 13:54:33;;;;;;;;;;;9.80;99.90;;;;;;4936844;29;20021;-89
2022/01/30 13:57:06;;;;;;;;;;;9.80;99.90;;;;;;4936764;29;20376;-88
2022/01/30 13:59:32;;;;;;;;;;;9.90;99.90;;;;;;4936655;29;19910;-88
2022/01/30 14:01:59;;;;;;;;;;;10.00;99.90;;;;;;4919840;29;20335;-88
2022/01/30 14:04:25;;;;;;;;;;;10.00;99.90;;;;;;4936500;29;19935;-89
2022/01/30 14:06:52;;;;;;;;;;;9.90;99.90;;;;;;4936359;29;19910;-88
2022/01/30 14:09:25;;;;;;;;;;;10.00;99.90;;;;;;4936129;29;20261;-88
2022/01/30 14:12:04;;;;;;;;;;;10.10;99.90;;;;;;4934707;29;19950;-88
2022/01/30 14:14:33;;;;;;;;;;;10.20;99.90;;;;;;4919968;29;20303;-88
2022/01/30 14:17:00;;;;;;;;;;;10.20;99.90;;;;;;4919455;29;19913;-88
2022/01/30 14:19:33;;;;;;;;;;;10.10;99.90;;;;;;4936566;29;19962;-88
2022/01/30 14:22:21;;;;;;;;;;;10.30;99.90;;;;;;4935658;29;19961;-88
2022/01/30 14:24:55;;;;;;;;;;;10.30;99.90;;;;;;4935845;29;19907;-88
2022/01/30 14:27:21;;;;;;;;;;;10.20;99.90;;;;;;4936276;29;19998;-88
2022/01/30 14:29:52;;;;;;;;;;;10.30;99.90;;;;;;4935969;29;19915;-88
2022/01/30 14:32:21;;;;;;;;;;;10.20;99.90;;;;;;4936213;29;19907;-88
2022/01/30 14:34:47;;;;;;;;;;;10.20;99.90;;;;;;4936270;29;19962;-88
2022/01/30 14:37:12;;;;;;;;;;;10.30;99.90;;;;;;4936492;29;19907;-88
2022/01/30 14:39:38;;;;;;;;;;;10.30;99.90;;;;;;4919149;29;19907;-89
2022/01/30 14:42:10;;;;;;;;;;;10.20;99.90;;;;;;4936310;29;19914;-88
2022/01/30 14:44:42;;;;;;;;;;;10.20;99.90;;;;;;4936399;29;19911;-89
2022/01/30 14:47:09;;;;;;;;;;;10.20;99.90;;;;;;4918526;29;20601;-88
2022/01/30 14:49:35;;;;;;;;;;;10.10;99.90;;;;;;4935830;29;19914;-88
2022/01/30 14:52:01;;;;;;;;;;;10.00;99.90;;;;;;4936011;29;19922;-88
2022/01/30 14:54:27;;;;;;;;;;;9.90;99.90;;;;;;4936112;29;20288;-88
2022/01/30 14:56:52;;;;;;;;;;;9.90;99.90;;;;;;4934523;29;19908;-88
2022/01/30 14:59:18;;;;;;;;;;;9.90;99.90;;;;;;4934692;29;19906;-88
2022/01/30 15:01:43;;;;;;;;;;;10.00;99.90;;;;;;4935993;29;20407;-88
2022/01/30 15:04:09;;;;;;;;;;;10.00;99.90;;;;;;4935679;29;19907;-88
2022/01/30 15:06:34;;;;;;;;;;;10.20;99.90;;;;;;4918623;29;20360;-88
2022/01/30 15:09:00;;;;;;;;;;;10.10;99.90;;;;;;4935303;29;19921;-88
2022/01/30 15:11:26;;;;;;;;;;;10.20;99.90;;;;;;4935795;29;19907;-88
2022/01/30 15:13:51;;;;;;;;;;;10.00;99.90;;;;;;4935384;29;19925;-88
2022/01/30 15:16:27;;;;;;;;;;;9.90;99.90;;;;;;4918449;29;20015;-88
2022/01/30 15:18:53;;;;;;;;;;;9.90;99.90;;;;;;4918417;29;19958;-86
2022/01/30 15:21:19;;;;;;;;;;;9.90;99.90;;;;;;4936214;29;19910;-88
2022/01/30 15:23:44;;;;;;;;;;;9.90;99.90;;;;;;4935629;29;19914;-89
2022/01/30 15:26:10;;;;;;;;;;;9.90;99.90;;;;;;4918535;29;19914;-89
2022/01/30 15:28:36;;;;;;;;;;;9.90;99.90;;;;;;4935006;29;20009;-89
2022/01/30 15:31:02;;;;;;;;;;;9.80;99.90;;;;;;4935530;29;19961;-89
2022/01/30 15:33:27;;;;;;;;;;;9.80;99.90;;;;;;4935127;29;19911;-89
2022/01/30 15:35:53;;;;;;;;;;;9.70;99.90;;;;;;4935027;29;20328;-89
2022/01/30 15:38:19;;;;;;;;;;;9.70;99.90;;;;;;4934835;29;19913;-88
2022/01/30 15:40:45;;;;;;;;;;;9.60;99.90;;;;;;4935164;29;19913;-89
2022/01/30 15:43:11;;;;;;;;;;;9.60;99.90;;;;;;4917645;29;20013;-89
2022/01/30 15:51:05;;;;;;;;;;;9.60;99.90;;;;;;4935058;29;19930;-89
2022/01/30 15:53:30;;;;;;;;;;;9.70;99.90;;;;;;4934340;29;20360;-89
2022/01/30 15:55:56;;;;;;;;;;;9.70;99.90;;;;;;4934421;29;20378;-89
2022/01/30 15:58:22;;;;;;;;;;;9.80;99.90;;;;;;4934413;29;20287;-89
2022/01/30 16:00:48;;;;;;;;;;;9.80;99.90;;;;;;4934578;29;19938;-89
2022/01/30 16:03:13;;;;;;;;;;;9.90;99.90;;;;;;4917181;29;20304;-89
2022/01/30 16:05:39;;;;;;;;;;;9.80;99.90;;;;;;4934473;29;19907;-89
2022/01/30 16:08:05;;;;;;;;;;;9.70;99.90;;;;;;4934277;29;19915;-89
2022/01/30 16:10:34;;;;;;;;;;;9.60;99.90;;;;;;4934123;29;20029;-88
2022/01/30 16:15:36;;;;;;;;;;;9.40;99.90;;;;;;4934088;29;19911;-90
2022/01/30 16:18:02;;;;;;;;;;;9.40;99.90;;;;;;4932935;29;20362;-89
2022/01/30 16:20:28;;;;;;;;;;;9.40;99.90;;;;;;4934273;29;19913;-89
2022/01/30 16:22:54;;;;;;;;;;;9.40;99.90;;;;;;4934506;29;20079;-89
2022/01/30 16:25:19;;;;;;;;;;;9.30;99.90;;;;;;4917238;29;19906;-88
2022/01/30 16:27:45;;;;;;;;;;;9.30;99.90;;;;;;4934295;29;19911;-89
2022/01/30 16:30:11;;;;;;;;;;;9.20;99.90;;;;;;4934760;29;20422;-88
2022/01/30 16:32:37;;;;;;;;;;;9.20;99.90;;;;;;4917760;29;19991;-90
2022/01/30 16:35:04;;;;;;;;;;;9.10;99.90;;;;;;4933950;29;20372;-90
2022/01/30 16:37:29;;;;;;;;;;;9.20;99.90;;;;;;4916375;29;19910;-89
2022/01/30 16:39:55;;;;;;;;;;;9.10;99.90;;;;;;4934378;29;19911;-90
2022/01/30 16:42:25;;;;;;;;;;;9.20;99.90;;;;;;4934299;29;19997;-89
2022/01/30 16:44:57;;;;;;;;;;;9.10;99.90;;;;;;4916935;29;19907;-88
2022/01/30 16:47:29;;;;;;;;;;;9.00;99.90;;;;;;4933750;29;19907;-88
2022/01/30 16:49:55;;;;;;;;;;;8.90;99.90;;;;;;4934115;29;19915;-88
2022/01/30 16:52:20;;;;;;;;;;;9.00;99.90;;;;;;4933836;29;19906;-87
2022/01/30 16:54:46;;;;;;;;;;;9.00;99.90;;;;;;4933927;29;19907;-89
2022/01/30 16:57:15;;;;;;;;;;;9.00;99.90;;;;;;4934035;29;19993;-88
2022/01/30 16:59:41;;;;;;;;;;;9.00;99.90;;;;;;4934284;29;19906;-90
2022/01/30 17:02:06;;;;;;;;;;;9.00;99.90;;;;;;4933862;29;20368;-88
2022/01/30 17:04:32;;;;;;;;;;;8.90;99.90;;;;;;4916822;29;19993;-87
2022/01/30 17:06:57;;;;;;;;;;;8.90;99.90;;;;;;4933716;29;19997;-87
2022/01/30 17:09:25;;;;;;;;;;;8.90;99.90;;;;;;4933093;29;19922;-76
2022/01/30 17:11:59;;;;;;;;;;;8.90;99.90;;;;;;4933532;29;19907;-90
2022/01/30 17:14:25;;;;;;;;;;;9.00;99.90;;;;;;4934119;29;19950;-88
2022/01/30 17:16:50;;;;;;;;;;;9.00;99.90;;;;;;4917319;29;20018;-88
2022/01/30 17:19:16;;;;;;;;;;;8.90;99.90;;;;;;4916799;29;19907;-91
2022/01/30 17:21:41;;;;;;;;;;;8.80;99.90;;;;;;4934006;29;19907;-89